createdAt,value
2017-10-06T00:02:08.923Z,20.70
2017-10-06T00:04:43.174Z,20.70
2017-10-06T00:07:17.136Z,20.70
2017-10-06T00:09:50.777Z,20.70
2017-10-06T00:12:24.862Z,20.70
2017-10-06T00:14:58.571Z,20.70
2017-10-06T00:17:32.737Z,20.70
2017-10-06T00:20:07.308Z,20.60
2017-10-06T00:22:41.466Z,20.60
2017-10-06T00:25:15.255Z,20.70
2017-10-06T00:27:48.991Z,20.60
2017-10-06T00:30:22.763Z,20.60
2017-10-06T00:32:56.408Z,20.60
2017-10-06T00:35:31.145Z,20.60
2017-10-06T00:38:05.223Z,20.60
2017-10-06T00:40:39.883Z,20.60
2017-10-06T00:43:14.019Z,20.60
2017-10-06T00:45:47.950Z,20.60
2017-10-06T00:48:22.436Z,20.50
2017-10-06T00:50:56.355Z,20.50
2017-10-06T00:53:30.788Z,20.50
2017-10-06T00:56:05.163Z,20.50
2017-10-06T00:58:38.848Z,20.50
2017-10-06T01:01:12.630Z,20.50
2017-10-06T01:03:46.418Z,20.50
2017-10-06T01:06:20.924Z,20.50
2017-10-06T01:08:55.242Z,20.50
2017-10-06T01:11:28.916Z,20.50
2017-10-06T01:14:03.473Z,20.50
2017-10-06T01:16:38.184Z,20.50
2017-10-06T01:19:13.040Z,20.50
2017-10-06T01:21:47.255Z,20.50
2017-10-06T01:24:21.081Z,20.60
2017-10-06T01:26:55.880Z,20.60
2017-10-06T01:29:29.928Z,20.60
2017-10-06T01:32:03.863Z,20.50
2017-10-06T01:34:37.499Z,20.50
2017-10-06T01:37:12.414Z,20.60
2017-10-06T01:39:46.566Z,20.60
2017-10-06T01:42:21.070Z,20.50
2017-10-06T01:44:55.038Z,20.50
2017-10-06T01:47:28.775Z,20.50
2017-10-06T01:50:02.772Z,20.50
2017-10-06T01:52:37.499Z,20.50
2017-10-06T01:55:12.418Z,20.50
2017-10-06T01:57:47.259Z,20.50
2017-10-06T02:00:22.011Z,20.50
2017-10-06T02:02:57.011Z,20.60
2017-10-06T02:05:31.206Z,20.60
2017-10-06T02:08:04.862Z,20.50
2017-10-06T02:10:38.634Z,20.50
2017-10-06T02:13:13.166Z,20.50
2017-10-06T02:15:47.290Z,20.50
2017-10-06T02:18:22.091Z,20.50
2017-10-06T02:20:56.242Z,20.50
2017-10-06T02:23:30.077Z,20.60
2017-10-06T02:26:03.745Z,20.60
2017-10-06T02:28:37.535Z,20.70
2017-10-06T02:31:11.173Z,20.70
2017-10-06T02:33:44.830Z,20.70
2017-10-06T02:36:18.587Z,20.70
2017-10-06T02:38:53.179Z,20.60
2017-10-06T02:41:27.170Z,20.60
2017-10-06T02:44:01.695Z,20.60
2017-10-06T02:46:36.232Z,20.50
2017-10-06T02:49:10.470Z,20.50
2017-10-06T02:51:44.367Z,20.50
2017-10-06T02:54:18.900Z,20.50
2017-10-06T02:56:53.299Z,20.60
2017-10-06T02:59:28.019Z,20.60
2017-10-06T03:02:02.066Z,20.60
2017-10-06T03:04:35.934Z,20.60
2017-10-06T03:07:11.276Z,20.60
2017-10-06T03:09:45.295Z,20.50
2017-10-06T03:12:19.065Z,20.50
2017-10-06T03:14:52.789Z,20.50
2017-10-06T03:17:26.703Z,20.50
2017-10-06T03:20:00.462Z,20.50
2017-10-06T03:22:35.116Z,20.40
2017-10-06T03:25:09.126Z,20.40
2017-10-06T03:27:42.903Z,20.50
2017-10-06T03:30:17.789Z,20.40
2017-10-06T03:32:51.946Z,20.40
2017-10-06T03:35:25.802Z,20.50
2017-10-06T03:37:59.801Z,20.40
2017-10-06T03:40:35.141Z,20.50
2017-10-06T03:43:09.158Z,20.40
2017-10-06T03:45:43.677Z,20.40
2017-10-06T03:48:17.676Z,20.40
2017-10-06T03:50:51.529Z,20.40
2017-10-06T03:53:26.275Z,20.40
2017-10-06T03:56:00.206Z,20.40
2017-10-06T03:58:33.886Z,20.50
2017-10-06T04:01:08.559Z,20.50
2017-10-06T04:03:43.005Z,20.40
2017-10-06T04:06:17.669Z,20.40
2017-10-06T04:08:51.728Z,20.40
2017-10-06T04:11:26.442Z,20.40
2017-10-06T04:14:00.414Z,20.40
2017-10-06T04:16:34.360Z,20.40
2017-10-06T04:19:08.103Z,20.40
2017-10-06T04:21:42.674Z,20.40
2017-10-06T04:24:16.795Z,20.40
2017-10-06T04:26:50.673Z,20.50
2017-10-06T04:29:24.323Z,20.40
2017-10-06T04:31:58.097Z,20.50
2017-10-06T04:34:32.692Z,20.40
2017-10-06T04:37:06.579Z,20.40
2017-10-06T04:39:40.327Z,20.40
2017-10-06T04:42:15.006Z,20.40
2017-10-06T04:44:49.598Z,20.30
2017-10-06T04:47:24.199Z,20.40
2017-10-06T04:49:58.312Z,20.40
2017-10-06T04:52:32.108Z,20.40
2017-10-06T04:55:05.747Z,20.40
2017-10-06T04:57:40.343Z,20.40
2017-10-06T05:00:14.382Z,20.30
2017-10-06T05:02:49.088Z,20.30
2017-10-06T05:05:23.426Z,20.30
2017-10-06T05:07:57.971Z,20.30
2017-10-06T05:10:31.618Z,20.30
2017-10-06T05:13:05.341Z,20.30
2017-10-06T05:15:39.268Z,20.30
2017-10-06T05:18:13.892Z,20.20
2017-10-06T05:20:48.475Z,20.30
2017-10-06T05:23:22.718Z,20.30
2017-10-06T05:25:56.799Z,20.20
2017-10-06T05:28:31.158Z,20.20
2017-10-06T05:31:05.910Z,20.20
2017-10-06T05:33:40.804Z,20.20
2017-10-06T05:36:15.606Z,20.10
2017-10-06T05:38:49.854Z,20.10
2017-10-06T05:41:23.683Z,20.10
2017-10-06T05:43:58.305Z,20.10
2017-10-06T05:46:32.082Z,20.10
2017-10-06T05:49:06.762Z,20.10
2017-10-06T05:51:41.322Z,20.10
2017-10-06T05:54:15.371Z,20.10
2017-10-06T05:56:49.271Z,20.10
2017-10-06T05:59:22.956Z,20.10
2017-10-06T06:01:56.727Z,20.00
2017-10-06T06:04:30.676Z,20.10
2017-10-06T06:07:04.575Z,20.10
2017-10-06T06:09:38.499Z,20.10
2017-10-06T06:12:13.106Z,20.00
2017-10-06T06:14:46.771Z,20.00
2017-10-06T06:17:20.518Z,20.00
2017-10-06T06:19:54.390Z,20.00
2017-10-06T06:22:28.147Z,20.00
2017-10-06T06:25:02.550Z,20.00
2017-10-06T06:27:36.402Z,20.00
2017-10-06T06:30:10.862Z,20.00
2017-10-06T06:32:45.409Z,20.00
2017-10-06T06:35:19.742Z,20.00
2017-10-06T06:37:54.915Z,20.00
2017-10-06T06:40:29.303Z,20.00
2017-10-06T06:43:03.092Z,20.00
2017-10-06T06:45:36.748Z,20.00
2017-10-06T06:48:11.562Z,20.00
2017-10-06T06:50:45.649Z,20.00
2017-10-06T06:53:19.381Z,20.00
2017-10-06T06:55:53.805Z,20.00
2017-10-06T06:58:27.778Z,20.00
2017-10-06T07:01:02.317Z,20.00
2017-10-06T07:03:36.302Z,20.00
2017-10-06T07:06:10.072Z,20.00
2017-10-06T07:08:43.886Z,20.00
2017-10-06T07:11:18.134Z,20.00
2017-10-06T07:13:52.817Z,20.00
2017-10-06T07:16:26.412Z,20.00
2017-10-06T07:19:00.329Z,20.00
2017-10-06T07:21:34.915Z,20.00
2017-10-06T07:24:09.154Z,19.90
2017-10-06T07:26:43.733Z,19.90
2017-10-06T07:29:17.982Z,19.90
2017-10-06T07:31:52.385Z,20.00
2017-10-06T07:34:26.550Z,19.90
2017-10-06T07:37:00.182Z,20.00
2017-10-06T07:39:34.028Z,20.00
2017-10-06T07:42:07.638Z,20.00
2017-10-06T07:44:42.122Z,20.00
2017-10-06T07:47:16.087Z,20.00
2017-10-06T07:49:50.074Z,20.00
2017-10-06T07:52:23.996Z,20.00
2017-10-06T07:54:57.845Z,20.00
2017-10-06T07:57:31.709Z,20.00
2017-10-06T08:00:05.514Z,19.90
2017-10-06T08:02:39.516Z,20.00
2017-10-06T08:05:13.996Z,20.00
2017-10-06T08:07:48.834Z,20.00
2017-10-06T08:10:22.982Z,20.00
2017-10-06T08:12:57.536Z,20.00
2017-10-06T08:15:31.605Z,20.00
2017-10-06T08:18:06.027Z,20.00
2017-10-06T08:20:40.245Z,20.00
2017-10-06T08:23:13.943Z,20.00
2017-10-06T08:25:48.263Z,20.00
2017-10-06T08:28:22.375Z,20.00
2017-10-06T08:30:56.150Z,20.00
2017-10-06T08:33:30.697Z,20.00
2017-10-06T08:36:05.506Z,19.90
2017-10-06T08:38:39.888Z,19.90
2017-10-06T08:41:13.942Z,20.00
2017-10-06T08:43:48.480Z,20.00
2017-10-06T08:46:23.168Z,20.00
2017-10-06T08:48:57.182Z,20.00
2017-10-06T08:51:31.316Z,20.00
2017-10-06T08:54:05.898Z,20.00
2017-10-06T08:56:39.699Z,19.90
2017-10-06T08:59:13.558Z,19.90
2017-10-06T09:01:47.474Z,19.90
2017-10-06T09:04:21.395Z,19.90
2017-10-06T09:06:55.225Z,19.90
2017-10-06T09:09:29.885Z,19.90
2017-10-06T09:12:04.033Z,19.90
2017-10-06T09:14:38.834Z,19.90
2017-10-06T09:17:12.497Z,19.90
2017-10-06T09:19:46.866Z,20.00
2017-10-06T09:22:21.148Z,20.00
2017-10-06T09:24:54.784Z,20.00
2017-10-06T09:27:29.169Z,20.00
2017-10-06T09:30:03.134Z,20.00
2017-10-06T09:32:37.917Z,20.10
2017-10-06T09:35:12.097Z,20.10
2017-10-06T09:37:46.637Z,20.10
2017-10-06T09:40:20.814Z,20.10
2017-10-06T09:42:55.372Z,20.10
2017-10-06T09:45:29.750Z,20.10
2017-10-06T09:48:04.357Z,20.10
2017-10-06T09:50:38.563Z,20.10
2017-10-06T09:53:13.174Z,20.10
2017-10-06T09:55:47.138Z,20.10
2017-10-06T09:58:21.223Z,20.10
2017-10-06T10:00:55.109Z,20.10
2017-10-06T10:03:28.946Z,20.10
2017-10-06T10:06:02.898Z,20.10
2017-10-06T10:08:36.588Z,20.10
2017-10-06T10:11:10.338Z,20.20
2017-10-06T10:13:43.912Z,20.20
2017-10-06T10:16:17.738Z,20.20
2017-10-06T10:18:51.489Z,20.10
2017-10-06T10:21:26.294Z,19.20
2017-10-06T10:24:00.322Z,19.20
2017-10-06T10:26:34.877Z,19.70
2017-10-06T10:29:09.054Z,19.70
2017-10-06T10:31:42.782Z,19.80
2017-10-06T10:34:18.279Z,19.90
2017-10-06T10:36:52.161Z,20.00
2017-10-06T10:39:27.399Z,20.00
2017-10-06T10:42:01.480Z,20.00
2017-10-06T10:44:35.221Z,20.00
2017-10-06T10:47:09.741Z,20.00
2017-10-06T10:49:43.689Z,20.00
2017-10-06T10:52:17.905Z,20.00
2017-10-06T10:54:52.627Z,20.00
2017-10-06T10:57:26.699Z,20.00
2017-10-06T11:00:01.327Z,20.00
2017-10-06T11:02:35.566Z,20.00
2017-10-06T11:05:10.149Z,20.10
2017-10-06T11:07:45.323Z,19.60
2017-10-06T11:10:19.428Z,19.60
2017-10-06T11:12:53.605Z,18.60
2017-10-06T11:15:27.587Z,18.60
2017-10-06T11:18:02.051Z,19.30
2017-10-06T11:20:35.956Z,19.20
2017-10-06T11:23:09.786Z,19.40
2017-10-06T11:25:43.817Z,19.60
2017-10-06T11:28:19.066Z,19.60
2017-10-06T11:30:55.637Z,19.60
2017-10-06T11:33:30.075Z,19.60
2017-10-06T11:36:03.933Z,19.40
2017-10-06T11:38:37.660Z,19.30
2017-10-06T11:41:11.490Z,19.40
2017-10-06T11:43:46.291Z,19.50
2017-10-06T11:46:20.234Z,19.50
2017-10-06T11:48:54.991Z,19.70
2017-10-06T11:51:29.838Z,19.60
2017-10-06T11:54:04.568Z,19.50
2017-10-06T11:56:38.638Z,19.60
2017-10-06T11:59:12.295Z,19.50
2017-10-06T12:01:46.195Z,19.60
2017-10-06T12:04:20.077Z,19.70
2017-10-06T12:06:53.894Z,19.90
2017-10-06T12:09:28.610Z,19.90
2017-10-06T12:12:02.538Z,19.90
2017-10-06T12:14:36.771Z,19.90
2017-10-06T12:17:11.397Z,19.70
2017-10-06T12:19:45.392Z,19.70
2017-10-06T12:22:19.367Z,19.30
2017-10-06T12:24:53.022Z,19.10
2017-10-06T12:27:26.875Z,19.00
2017-10-06T12:30:00.851Z,19.30
2017-10-06T12:32:35.206Z,20.10
2017-10-06T12:35:09.381Z,20.00
2017-10-06T12:37:43.406Z,20.20
2017-10-06T12:40:17.292Z,20.20
2017-10-06T12:42:51.954Z,20.30
2017-10-06T12:45:25.920Z,20.30
2017-10-06T12:47:59.653Z,20.40
2017-10-06T12:50:33.369Z,20.40
2017-10-06T12:53:07.169Z,20.60
2017-10-06T12:55:41.631Z,21.00
2017-10-06T12:58:15.664Z,21.00
2017-10-06T13:00:49.658Z,21.30
2017-10-06T13:03:23.904Z,21.30
2017-10-06T13:05:57.851Z,21.50
2017-10-06T13:08:31.773Z,21.90
2017-10-06T13:11:06.197Z,22.30
2017-10-06T13:13:40.220Z,22.30
2017-10-06T13:16:14.913Z,22.70
2017-10-06T13:18:49.050Z,22.70
2017-10-06T13:21:23.677Z,22.40
2017-10-06T13:23:57.577Z,22.20
2017-10-06T13:26:31.395Z,21.90
2017-10-06T13:29:05.529Z,21.50
2017-10-06T13:31:39.519Z,21.50
2017-10-06T13:34:14.034Z,21.40
2017-10-06T13:36:48.606Z,21.10
2017-10-06T13:39:24.545Z,21.10
2017-10-06T13:41:58.722Z,21.10
2017-10-06T13:44:32.373Z,20.90
2017-10-06T13:47:06.179Z,20.90
2017-10-06T13:49:40.512Z,20.50
2017-10-06T13:52:14.517Z,20.50
2017-10-06T13:54:48.310Z,20.60
2017-10-06T13:57:22.187Z,20.40
2017-10-06T13:59:56.024Z,20.60
2017-10-06T14:02:29.816Z,20.10
2017-10-06T14:05:03.618Z,20.20
2017-10-06T14:07:37.417Z,20.50
2017-10-06T14:10:11.089Z,20.60
2017-10-06T14:12:44.792Z,20.60
2017-10-06T14:15:18.665Z,20.30
2017-10-06T14:17:52.519Z,20.10
2017-10-06T14:20:27.071Z,19.60
2017-10-06T14:23:01.192Z,18.90
2017-10-06T14:25:36.060Z,18.80
2017-10-06T14:28:11.081Z,19.40
2017-10-06T14:30:45.116Z,19.40
2017-10-06T14:33:19.718Z,19.80
2017-10-06T14:35:53.770Z,19.80
2017-10-06T14:38:27.410Z,19.90
2017-10-06T14:41:02.688Z,19.90
2017-10-06T14:43:37.067Z,19.90
2017-10-06T14:46:11.295Z,19.30
2017-10-06T14:48:45.822Z,19.20
2017-10-06T14:51:20.082Z,19.20
2017-10-06T14:53:54.554Z,19.70
2017-10-06T14:56:29.221Z,19.70
2017-10-06T14:59:04.013Z,19.90
2017-10-06T15:01:38.034Z,19.60
2017-10-06T15:04:12.367Z,19.30
2017-10-06T15:06:46.699Z,19.60
2017-10-06T15:09:21.803Z,19.90
2017-10-06T15:11:55.942Z,19.90
2017-10-06T15:14:29.558Z,20.00
2017-10-06T15:17:03.950Z,20.20
2017-10-06T15:19:38.011Z,20.20
2017-10-06T15:22:12.498Z,20.30
2017-10-06T15:28:24.799Z,20.40
2017-10-06T15:30:59.551Z,20.40
2017-10-06T15:33:33.552Z,20.40
2017-10-06T15:36:07.277Z,20.40
2017-10-06T15:38:41.049Z,20.40
2017-10-06T15:41:15.203Z,20.40
2017-10-06T15:43:49.797Z,20.50
2017-10-06T15:46:23.804Z,20.50
2017-10-06T15:48:57.705Z,20.60
2017-10-06T15:51:31.547Z,20.60
2017-10-06T15:54:05.258Z,20.70
2017-10-06T15:56:39.817Z,21.10
2017-10-06T15:59:13.810Z,21.10
2017-10-06T16:01:47.526Z,21.20
2017-10-06T16:04:21.142Z,21.40
2017-10-06T16:06:54.972Z,21.60
2017-10-06T16:09:29.366Z,21.70
2017-10-06T16:12:04.297Z,21.80
2017-10-06T16:14:39.127Z,21.90
2017-10-06T16:17:13.030Z,21.90
2017-10-06T16:19:47.479Z,22.10
2017-10-06T16:22:22.089Z,22.20
2017-10-06T16:24:56.043Z,22.10
2017-10-06T16:27:30.525Z,22.40
2017-10-06T16:30:04.386Z,22.30
2017-10-06T16:32:38.070Z,22.40
2017-10-06T16:35:12.736Z,22.60
2017-10-06T16:37:46.673Z,22.60
2017-10-06T16:40:20.459Z,22.70
2017-10-06T16:42:54.128Z,22.60
2017-10-06T16:45:28.017Z,22.70
2017-10-06T16:48:01.774Z,22.70
2017-10-06T16:50:35.485Z,22.70
2017-10-06T16:53:09.206Z,22.80
2017-10-06T16:55:43.834Z,22.90
2017-10-06T16:58:17.537Z,23.00
2017-10-06T17:00:52.987Z,23.20
2017-10-06T17:03:26.999Z,23.20
2017-10-06T17:06:01.682Z,23.30
2017-10-06T17:08:36.329Z,23.40
2017-10-06T17:11:11.521Z,23.50
2017-10-06T17:13:45.509Z,23.50
2017-10-06T17:16:19.395Z,23.50
2017-10-06T17:18:53.093Z,23.50
2017-10-06T17:21:27.622Z,23.50
2017-10-06T17:24:01.483Z,23.50
2017-10-06T17:26:36.111Z,23.60
2017-10-06T17:29:09.918Z,23.60
2017-10-06T17:31:43.983Z,23.60
2017-10-06T17:34:18.342Z,23.70
2017-10-06T17:36:52.295Z,23.70
2017-10-06T17:39:25.970Z,23.70
2017-10-06T17:42:00.429Z,23.60
2017-10-06T17:44:34.261Z,23.60
2017-10-06T17:47:08.019Z,23.60
2017-10-06T17:49:41.832Z,23.50
2017-10-06T17:52:15.790Z,23.40
2017-10-06T17:54:50.134Z,23.30
2017-10-06T17:57:24.877Z,23.30
2017-10-06T17:59:58.734Z,23.30
2017-10-06T18:02:32.414Z,23.20
2017-10-06T18:05:06.214Z,23.20
2017-10-06T18:07:40.123Z,23.10
2017-10-06T18:10:13.814Z,23.00
2017-10-06T18:12:47.714Z,22.90
2017-10-06T18:15:21.318Z,22.90
2017-10-06T18:17:55.351Z,22.90
2017-10-06T18:20:29.251Z,22.80
2017-10-06T18:23:02.848Z,22.80
2017-10-06T18:25:37.781Z,22.80
2017-10-06T18:28:13.310Z,22.70
2017-10-06T18:30:47.421Z,22.70
2017-10-06T18:33:22.605Z,22.60
2017-10-06T18:35:56.461Z,22.60
2017-10-06T18:38:30.497Z,22.50
2017-10-06T18:41:04.369Z,22.50
2017-10-06T18:43:38.915Z,22.50
2017-10-06T18:46:12.670Z,22.60
2017-10-06T18:48:47.453Z,22.50
2017-10-06T18:51:21.908Z,22.40
2017-10-06T18:53:55.666Z,22.30
2017-10-06T18:56:29.419Z,22.40
2017-10-06T18:59:03.978Z,22.20
2017-10-06T19:01:37.829Z,22.20
2017-10-06T19:04:11.458Z,22.10
2017-10-06T19:06:45.339Z,22.10
2017-10-06T19:09:18.980Z,22.00
2017-10-06T19:11:53.425Z,21.90
2017-10-06T19:14:27.242Z,21.90
2017-10-06T19:17:00.872Z,21.90
2017-10-06T19:19:35.251Z,21.80
2017-10-06T19:22:09.962Z,21.80
2017-10-06T19:24:44.653Z,21.70
2017-10-06T19:27:18.665Z,21.70
2017-10-06T19:29:52.259Z,21.70
2017-10-06T19:32:26.062Z,21.70
2017-10-06T19:34:59.714Z,21.70
2017-10-06T19:37:34.278Z,21.70
2017-10-06T19:40:08.261Z,21.60
2017-10-06T19:42:42.837Z,21.60
2017-10-06T19:45:16.774Z,21.60
2017-10-06T19:47:50.410Z,21.60
2017-10-06T19:50:24.189Z,21.50
2017-10-06T19:52:57.911Z,21.50
2017-10-06T19:55:32.408Z,21.50
2017-10-06T19:58:06.277Z,21.50
2017-10-06T20:00:39.950Z,21.50
2017-10-06T20:03:14.341Z,21.30
2017-10-06T20:05:48.288Z,21.30
2017-10-06T20:08:22.082Z,21.30
2017-10-06T20:10:56.737Z,21.40
2017-10-06T20:13:30.485Z,21.40
2017-10-06T20:16:04.264Z,21.40
2017-10-06T20:18:38.205Z,21.40
2017-10-06T20:21:11.877Z,21.40
2017-10-06T20:23:46.506Z,21.40
2017-10-06T20:26:20.337Z,21.30
2017-10-06T20:28:54.105Z,21.30
2017-10-06T20:31:27.786Z,21.30
2017-10-06T20:34:01.746Z,21.30
2017-10-06T20:36:35.333Z,21.30
2017-10-06T20:39:09.061Z,21.30
2017-10-06T20:41:42.768Z,21.30
2017-10-06T20:44:16.491Z,21.30
2017-10-06T20:46:50.254Z,21.40
2017-10-06T20:49:24.043Z,21.40
2017-10-06T20:52:00.946Z,21.40
2017-10-06T20:54:35.420Z,21.40
2017-10-06T20:57:10.036Z,21.30
2017-10-06T20:59:43.674Z,21.30
2017-10-06T21:02:17.334Z,21.30
2017-10-06T21:04:52.274Z,21.30
2017-10-06T21:07:26.867Z,21.30
2017-10-06T21:10:00.507Z,21.20
2017-10-06T21:12:34.370Z,21.20
2017-10-06T21:15:08.175Z,21.20
2017-10-06T21:17:42.655Z,21.20
2017-10-06T21:20:16.469Z,21.20
2017-10-06T21:22:50.097Z,21.20
2017-10-06T21:25:23.822Z,21.20
2017-10-06T21:27:57.581Z,21.10
2017-10-06T21:30:31.372Z,21.10
2017-10-06T21:33:05.134Z,21.10
2017-10-06T21:35:38.842Z,21.00
2017-10-06T21:38:12.525Z,21.00
2017-10-06T21:40:46.318Z,21.00
2017-10-06T21:43:20.158Z,21.00
2017-10-06T21:45:53.818Z,20.90
2017-10-06T21:48:28.334Z,20.80
2017-10-06T21:51:02.370Z,20.80
2017-10-06T21:53:36.812Z,20.80
2017-10-06T21:56:10.852Z,20.80
2017-10-06T21:58:44.771Z,20.80
2017-10-06T22:01:19.178Z,20.70
2017-10-06T22:03:53.302Z,20.70
2017-10-06T22:06:27.246Z,20.70
2017-10-06T22:09:01.084Z,20.60
2017-10-06T22:11:34.854Z,20.60
2017-10-06T22:14:08.610Z,20.60
2017-10-06T22:16:43.478Z,20.50
2017-10-06T22:19:18.369Z,20.50
2017-10-06T22:21:52.343Z,20.50
2017-10-06T22:24:26.073Z,20.40
2017-10-06T22:27:00.021Z,20.40
2017-10-06T22:29:33.720Z,20.40
2017-10-06T22:32:08.126Z,20.30
2017-10-06T22:34:42.226Z,20.30
2017-10-06T22:37:15.874Z,20.30
2017-10-06T22:39:49.691Z,20.30
2017-10-06T22:42:24.157Z,20.20
2017-10-06T22:44:58.114Z,20.20
2017-10-06T22:47:32.810Z,20.30
2017-10-06T22:50:07.070Z,20.30
2017-10-06T22:52:41.030Z,20.40
2017-10-06T22:55:14.660Z,20.40
2017-10-06T22:57:50.146Z,20.50
2017-10-06T23:00:24.131Z,20.50
2017-10-06T23:02:58.705Z,20.50
2017-10-06T23:05:33.005Z,20.50
2017-10-06T23:08:06.725Z,20.60
2017-10-06T23:10:40.727Z,20.50
2017-10-06T23:13:14.545Z,20.50
2017-10-06T23:15:48.206Z,20.50
2017-10-06T23:18:23.481Z,20.50
2017-10-06T23:20:57.748Z,20.40
2017-10-06T23:23:31.997Z,20.50
2017-10-06T23:26:07.156Z,20.50
2017-10-06T23:28:40.882Z,20.50
2017-10-06T23:31:15.461Z,20.50
2017-10-06T23:33:50.125Z,20.50
2017-10-06T23:36:23.817Z,20.50
2017-10-06T23:38:57.587Z,20.50
2017-10-06T23:41:31.443Z,20.40
2017-10-06T23:44:05.977Z,20.40
2017-10-06T23:46:40.449Z,20.40
2017-10-06T23:49:15.516Z,20.40
2017-10-06T23:51:49.397Z,20.40
2017-10-06T23:54:24.724Z,20.40
2017-10-06T23:56:58.635Z,20.40
2017-10-06T23:59:32.815Z,20.40
